AirNav   Phillips 66 Aviation Fuel
 
 1000 users online  

72F Throckmorton Municipal Airport
Throckmorton, Texas, USA


FAA INFORMATION EFFECTIVE 07 DECEMBER 2017

Location

FAA Identifier: 72F
Lat/Long: 33-10-48.0150N / 099-08-59.1450W
33-10.800250N / 099-08.985750W
33.1800042 / -99.1497625
(estimated)
Elevation: 1273 ft. / 388 m (estimated)
Variation: 08E (1985)
From city: 1 mile NE of THROCKMORTON, TX
Time zone: UTC -6 (UTC -5 during Daylight Saving Time)
Zip code: 76483

Airport Operations

Airport use: Open to the public
Activation date: 05/1975
Control tower: no
ARTCC: FORT WORTH CENTER
FSS: FORT WORTH FLIGHT SERVICE STATION
NOTAMs facility: FTW (NOTAM-D service available)
Attendance: UNATNDD
Wind indicator: lighted
Segmented circle: no
Beacon: white-green (lighted land airport)
Operates sunset to sunrise.

Airport Communications

CTAF: 122.9

Nearby radio navigation aids

NDB name  Hdg/Dist  Freq  Var  ID
GRAHAM264/32.837107EGHX --. .... -..-

Airport Services

Parking: tiedowns
Airframe service: NONE
Powerplant service: NONE

Runway Information

Runway 17/35

Dimensions: 3723 x 60 ft. / 1135 x 18 m
Surface: asphalt, in good condition
Weight bearing capacity: 
Single wheel: 12.0
Runway edge lights: low intensity
RUNWAY 17  RUNWAY 35
Latitude: 33-11.107167N33-10.493333N
Longitude: 099-08.983333W099-08.988167W
Elevation: 1273.0 ft.1264.0 ft.
Traffic pattern: leftleft
Markings: basic, in good conditionNSTD, in fair condition
Runway end identifier lights: nono
Obstructions: 18 ft. road, 300 ft. from runway, 5:1 slope to clear
APCH SLOPE 29:1 TO DSPLCD THLD.
63 ft. trees, 1458 ft. from runway, 110 ft. left of centerline, 20:1 slope to clear
APCH SLOPE 44:1 AT DSPLCD THLD.

Airport Ownership and Management from official FAA records

Ownership: Publicly-owned
Owner: CITY OF THROCKMORTON
P.O. BOX 640
THROCKMORTON, TX 76483
Phone 940-849-4411
Manager: WILLIAM CARROLL
P.O. BOX 640
THROCKMORTON, TX 76483
Phone 940-849-4411
EMERGENCY PHONE: (940) 849-9421 (SHERIFF).

Airport Operational Statistics

Aircraft operations: 65/year *
100% transient general aviation
* for 12-month period ending 21 January 2015

Additional Remarks

CONSTRUCTION UNDERWAY AT AIRPORT NO "X'S" PRESENT

Instrument Procedures

There are no published instrument procedures at 72F.

Some nearby airports with instrument procedures:

KONY - Olney Municipal Airport (19 nm NE)
T23 - Albany Municipal Airport (28 nm S)
15F - Haskell Municipal Airport (29 nm W)
60F - Seymour Municipal Airport (29 nm N)
KRPH - Graham Municipal Airport (30 nm E)
 
Loc | Ops | Rwys | IFR | FBO | Links
Com | Nav | Svcs | Stats | Notes


 
Area around 72F (Throckmorton Municipal Airport)
 
Road maps at: MapQuest Bing Google
 
Aerial photo
No photo
 
Sectional chart

 
Airport distance calculator
Flying to Throckmorton Municipal Airport? Find the distance to fly.

From to 72F

Sunrise and sunset
Times for 16-Dec-2017
 Local
(UTC-6)
 Zulu
(UTC)
Morning civil twilight07:0713:07
Sunrise07:3413:34
Sunset17:3023:30
Evening civil twilight17:5823:58

Current date and time
Zulu (UTC)  16-Dec-2017 17:17:22
Local (UTC-6)  16-Dec-2017 11:17:22
 
METAR
KRPH 
30nm E 
161655Z AUTO 19007KT 10SM 13/M01 A3005 RMK AO2 T01281011
KBKD 
31nm SE 
161655Z AUTO 19008KT 10SM CLR 11/M03 A3004 RMK AO2 T01121028
KETN 
49nm S 
161655Z AUTO 17006KT 10SM CLR 09/M01 A3007 RMK AO2 T00901012
KGZN 
49nm S 
161640Z AUTO 16005KT 10SM CLR 08/M01 A3005 RMK AO2
TAF
NOTAMs
Click for the latest NOTAMs
NOTAMs are issued by the DoD/FAA and will open in a separate window not controlled by AirNav.

 

 
 

Would you like to see your business listed on this page?

 If your business provides an interesting product or service to pilots, flight crews, aircraft, or users of the Throckmorton Municipal Airport, you should consider listing it here.  To start the listing process, click on the button below
 
Add a business
 

Other Pages about Throckmorton Municipal Airport

Update a link
 
Copyright © AirNav, LLC. All rights reserved. Privacy Policy  Contact